Terminal Aerodrome Forecast
Issued by NWS

Home | Current Version | Previous Version | Text Only | Print | Product List | Glossary On
Versions: 1 2 3 4 5 6 7 8 9 10 11
000
FTUS45 KFGZ 022300
TAFSEZ
TAF
KSEZ 022323Z 0300/0324 VRB06KT P6SM SKC
     FM030500 04009KT P6SM SKC
     FM031900 22010G18KT P6SM FEW100=

USA.gov is the U.S. government's official web portal to all federal, state and local government web resources and services.